createdAt,value
2022-10-06T00:00:07.706Z,9.50
2022-10-06T00:01:07.800Z,9.50
2022-10-06T00:02:07.764Z,9.54
2022-10-06T00:03:07.668Z,9.55
2022-10-06T00:04:07.655Z,9.54
2022-10-06T00:05:07.643Z,9.48
2022-10-06T00:06:07.630Z,9.44
2022-10-06T00:07:07.641Z,9.43
2022-10-06T00:08:10.306Z,9.43
2022-10-06T00:09:07.590Z,9.40
2022-10-06T00:10:07.573Z,9.40
2022-10-06T00:11:07.563Z,9.39
2022-10-06T00:12:07.550Z,9.34
2022-10-06T00:13:07.542Z,9.31
2022-10-06T00:14:07.523Z,9.32
2022-10-06T00:15:07.509Z,9.31
2022-10-06T00:16:07.514Z,9.29
2022-10-06T00:17:07.483Z,9.31
2022-10-06T00:18:07.471Z,9.28
2022-10-06T00:19:07.458Z,9.29
2022-10-06T00:20:07.444Z,9.29
2022-10-06T00:21:07.431Z,9.26
2022-10-06T00:22:07.424Z,9.26
2022-10-06T00:23:07.442Z,9.25
2022-10-06T00:24:07.391Z,9.23
2022-10-06T00:25:07.386Z,9.23
2022-10-06T00:26:07.366Z,9.18
2022-10-06T00:27:07.362Z,9.16
2022-10-06T00:28:07.450Z,9.11
2022-10-06T00:29:07.328Z,9.11
2022-10-06T00:30:07.320Z,9.11
2022-10-06T00:31:07.335Z,9.11
2022-10-06T00:32:07.490Z,9.11
2022-10-06T00:33:07.272Z,9.06
2022-10-06T00:34:07.259Z,9.04
2022-10-06T00:35:07.251Z,9.04
2022-10-06T00:36:07.237Z,9.04
2022-10-06T00:37:07.226Z,9.04
2022-10-06T00:38:07.209Z,9.08
2022-10-06T00:39:07.221Z,9.10
2022-10-06T00:40:07.184Z,9.11
2022-10-06T00:41:07.175Z,9.10
2022-10-06T00:42:07.158Z,9.10
2022-10-06T00:43:07.146Z,9.10
2022-10-06T00:44:07.139Z,9.08
2022-10-06T00:45:07.120Z,9.08
2022-10-06T00:46:07.140Z,9.08
2022-10-06T00:47:07.097Z,9.06
2022-10-06T00:48:07.081Z,9.03
2022-10-06T00:49:07.069Z,9.03
2022-10-06T00:50:07.052Z,9.00
2022-10-06T00:51:07.040Z,8.95
2022-10-06T00:52:07.027Z,8.94
2022-10-06T00:53:07.015Z,8.92
2022-10-06T00:54:07.003Z,8.94
2022-10-06T00:55:07.015Z,8.97
2022-10-06T00:56:06.976Z,8.97
2022-10-06T00:57:06.966Z,8.92
2022-10-06T00:58:06.951Z,8.91
2022-10-06T00:59:06.943Z,8.92
2022-10-06T01:00:06.927Z,8.91
2022-10-06T01:01:06.961Z,8.92
2022-10-06T01:02:06.899Z,8.91
2022-10-06T01:03:07.025Z,8.89
2022-10-06T01:04:06.875Z,8.88
2022-10-06T01:05:06.858Z,8.85
2022-10-06T01:06:06.852Z,8.85
2022-10-06T01:07:06.831Z,8.85
2022-10-06T01:08:06.819Z,8.87
2022-10-06T01:09:06.808Z,8.88
2022-10-06T01:10:06.797Z,8.87
2022-10-06T01:11:06.819Z,8.82
2022-10-06T01:12:06.769Z,8.76
2022-10-06T01:13:06.755Z,8.74
2022-10-06T01:14:06.745Z,8.76
2022-10-06T01:15:06.733Z,8.74
2022-10-06T01:16:06.826Z,8.73
2022-10-06T01:17:06.705Z,8.70
2022-10-06T01:18:06.691Z,8.69
2022-10-06T01:19:06.678Z,8.69
2022-10-06T01:20:06.665Z,8.69
2022-10-06T01:21:06.653Z,8.67
2022-10-06T01:22:06.641Z,8.67
2022-10-06T01:23:06.627Z,8.67
2022-10-06T01:24:06.617Z,8.66
2022-10-06T01:25:06.601Z,8.63
2022-10-06T01:26:06.594Z,8.63
2022-10-06T01:27:06.598Z,8.64
2022-10-06T01:28:06.634Z,8.64
2022-10-06T01:29:06.552Z,8.64
2022-10-06T01:30:06.615Z,8.61
2022-10-06T01:31:06.614Z,8.63
2022-10-06T01:32:06.509Z,8.63
2022-10-06T01:33:06.499Z,8.61
2022-10-06T01:34:06.483Z,8.63
2022-10-06T01:35:06.467Z,8.61
2022-10-06T01:36:06.464Z,8.58
2022-10-06T01:37:06.441Z,8.58
2022-10-06T01:38:06.431Z,8.61
2022-10-06T01:39:06.417Z,8.63
2022-10-06T01:40:06.407Z,8.63
2022-10-06T01:41:06.399Z,8.63
2022-10-06T01:42:06.385Z,8.64
2022-10-06T01:43:06.447Z,8.64
2022-10-06T01:44:06.356Z,8.64
2022-10-06T01:45:06.349Z,8.64
2022-10-06T01:46:06.387Z,8.66
2022-10-06T01:47:06.319Z,8.64
2022-10-06T01:48:06.305Z,8.64
2022-10-06T01:49:06.288Z,8.63
2022-10-06T01:50:06.276Z,8.58
2022-10-06T01:51:06.264Z,8.61
2022-10-06T01:52:06.250Z,8.60
2022-10-06T01:53:06.237Z,8.60
2022-10-06T01:54:06.224Z,8.61
2022-10-06T01:55:06.211Z,8.58
2022-10-06T01:56:06.198Z,8.55
2022-10-06T01:57:06.192Z,8.52
2022-10-06T01:58:06.177Z,8.52
2022-10-06T01:59:06.181Z,8.53
2022-10-06T02:00:06.147Z,8.51
2022-10-06T02:01:06.135Z,8.44
2022-10-06T02:02:06.207Z,8.38
2022-10-06T02:03:06.107Z,8.36
2022-10-06T02:04:06.155Z,8.36
2022-10-06T02:05:06.083Z,8.31
2022-10-06T02:06:06.126Z,8.30
2022-10-06T02:07:06.057Z,8.28
2022-10-06T02:08:06.045Z,8.30
2022-10-06T02:09:06.031Z,8.28
2022-10-06T02:10:06.015Z,8.26
2022-10-06T02:11:06.009Z,8.23
2022-10-06T02:12:05.999Z,8.20
2022-10-06T02:13:05.980Z,8.23
2022-10-06T02:14:05.966Z,8.26
2022-10-06T02:15:05.976Z,8.24
2022-10-06T02:16:05.981Z,8.20
2022-10-06T02:17:05.927Z,8.19
2022-10-06T02:18:05.915Z,8.19
2022-10-06T02:19:05.900Z,8.19
2022-10-06T02:20:05.886Z,8.16
2022-10-06T02:21:05.870Z,8.15
2022-10-06T02:22:05.863Z,8.09
2022-10-06T02:23:05.849Z,8.08
2022-10-06T02:24:05.832Z,8.05
2022-10-06T02:25:05.825Z,8.06
2022-10-06T02:26:05.807Z,8.05
2022-10-06T02:27:05.795Z,8.05
2022-10-06T02:28:05.822Z,8.01
2022-10-06T02:29:05.769Z,8.01
2022-10-06T02:30:05.756Z,8.01
2022-10-06T02:31:05.824Z,8.03
2022-10-06T02:32:05.729Z,7.98
2022-10-06T02:33:05.714Z,7.95
2022-10-06T02:34:05.701Z,7.94
2022-10-06T02:35:05.688Z,7.95
2022-10-06T02:36:05.680Z,7.95
2022-10-06T02:37:05.665Z,7.94
2022-10-06T02:38:05.650Z,7.97
2022-10-06T02:39:05.638Z,7.98
2022-10-06T02:40:05.627Z,8.01
2022-10-06T02:41:05.614Z,8.06
2022-10-06T02:42:05.597Z,8.06
2022-10-06T02:43:05.585Z,8.06
2022-10-06T02:44:05.575Z,8.09
2022-10-06T02:45:05.558Z,8.10
2022-10-06T02:46:05.792Z,8.13
2022-10-06T02:47:05.559Z,8.16
2022-10-06T02:48:05.521Z,8.13
2022-10-06T02:49:05.705Z,8.12
2022-10-06T02:50:05.495Z,8.12
2022-10-06T02:51:05.483Z,8.10
2022-10-06T02:52:05.476Z,8.09
2022-10-06T02:53:05.459Z,8.09
2022-10-06T02:54:05.440Z,8.06
2022-10-06T02:55:05.430Z,8.08
2022-10-06T02:56:05.419Z,8.10
2022-10-06T02:57:05.405Z,8.09
2022-10-06T02:58:05.388Z,8.09
2022-10-06T02:59:05.379Z,8.10
2022-10-06T03:00:05.371Z,8.13
2022-10-06T03:01:05.352Z,8.10
2022-10-06T03:02:05.439Z,8.08
2022-10-06T03:03:05.415Z,8.05
2022-10-06T03:04:05.315Z,8.06
2022-10-06T03:05:05.304Z,8.06
2022-10-06T03:06:05.287Z,8.08
2022-10-06T03:07:05.274Z,8.05
2022-10-06T03:08:05.261Z,8.03
2022-10-06T03:09:05.250Z,8.00
2022-10-06T03:10:05.237Z,7.97
2022-10-06T03:11:05.223Z,7.94
2022-10-06T03:12:05.209Z,7.93
2022-10-06T03:13:05.196Z,7.90
2022-10-06T03:14:05.218Z,7.93
2022-10-06T03:15:05.177Z,7.91
2022-10-06T03:16:05.201Z,7.93
2022-10-06T03:17:05.186Z,7.93
2022-10-06T03:18:05.136Z,7.87
2022-10-06T03:19:05.185Z,7.82
2022-10-06T03:20:05.193Z,7.85
2022-10-06T03:21:05.097Z,7.82
2022-10-06T03:22:05.079Z,7.77
2022-10-06T03:23:05.067Z,7.75
2022-10-06T03:24:05.053Z,7.73
2022-10-06T03:25:05.041Z,7.76
2022-10-06T03:26:05.027Z,7.76
2022-10-06T03:27:05.014Z,7.73
2022-10-06T03:28:05.065Z,7.72
2022-10-06T03:29:09.161Z,7.70
2022-10-06T03:30:06.005Z,7.70
2022-10-06T03:31:05.048Z,7.63
2022-10-06T03:32:04.950Z,7.61
2022-10-06T03:33:05.003Z,7.57
2022-10-06T03:34:04.921Z,7.57
2022-10-06T03:35:04.938Z,7.57
2022-10-06T03:36:04.895Z,7.56
2022-10-06T03:37:04.886Z,7.61
2022-10-06T03:38:04.870Z,7.63
2022-10-06T03:39:04.860Z,7.67
2022-10-06T03:40:04.852Z,7.63
2022-10-06T03:41:04.846Z,7.63
2022-10-06T03:42:04.817Z,7.67
2022-10-06T03:43:04.807Z,7.70
2022-10-06T03:44:04.793Z,7.75
2022-10-06T03:45:04.781Z,7.75
2022-10-06T03:46:04.768Z,7.76
2022-10-06T03:47:04.839Z,7.77
2022-10-06T03:48:04.749Z,7.72
2022-10-06T03:49:04.727Z,7.67
2022-10-06T03:50:04.714Z,7.56
2022-10-06T03:51:04.725Z,7.51
2022-10-06T03:52:04.688Z,7.47
2022-10-06T03:53:04.675Z,7.48
2022-10-06T03:54:04.659Z,7.51
2022-10-06T03:55:04.647Z,7.54
2022-10-06T03:56:04.634Z,7.57
2022-10-06T03:57:04.623Z,7.54
2022-10-06T03:58:04.608Z,7.53
2022-10-06T03:59:04.600Z,7.54
2022-10-06T04:00:04.584Z,7.56
2022-10-06T04:01:04.641Z,7.53
2022-10-06T04:02:04.670Z,7.51
2022-10-06T04:03:04.546Z,7.50
2022-10-06T04:04:04.532Z,7.53
2022-10-06T04:05:04.520Z,7.56
2022-10-06T04:06:04.506Z,7.58
2022-10-06T04:07:04.522Z,7.57
2022-10-06T04:08:04.482Z,7.60
2022-10-06T04:09:04.474Z,7.61
2022-10-06T04:10:04.691Z,7.66
2022-10-06T04:11:04.443Z,7.63
2022-10-06T04:12:04.429Z,7.58
2022-10-06T04:13:04.417Z,7.56
2022-10-06T04:14:04.403Z,7.54
2022-10-06T04:15:04.390Z,7.53
2022-10-06T04:16:04.423Z,7.53
2022-10-06T04:17:04.375Z,7.54
2022-10-06T04:18:04.349Z,7.54
2022-10-06T04:19:04.344Z,7.56
2022-10-06T04:20:04.325Z,7.58
2022-10-06T04:21:04.313Z,7.61
2022-10-06T04:22:04.300Z,7.56
2022-10-06T04:23:04.310Z,7.47
2022-10-06T04:24:04.273Z,7.42
2022-10-06T04:25:04.261Z,7.42
2022-10-06T04:26:04.248Z,7.42
2022-10-06T04:27:04.231Z,7.39
2022-10-06T04:28:04.303Z,7.40
2022-10-06T04:29:04.208Z,7.45
2022-10-06T04:30:04.201Z,7.48
2022-10-06T04:31:04.180Z,7.47
2022-10-06T04:32:04.175Z,7.47
2022-10-06T04:33:04.154Z,7.50
2022-10-06T04:34:04.141Z,7.54
2022-10-06T04:35:04.126Z,7.60
2022-10-06T04:36:04.114Z,7.60
2022-10-06T04:37:04.126Z,7.61
2022-10-06T04:38:04.092Z,7.60
2022-10-06T04:39:04.104Z,7.56
2022-10-06T04:40:04.065Z,7.53
2022-10-06T04:41:04.051Z,7.48
2022-10-06T04:42:04.036Z,7.43
2022-10-06T04:43:04.035Z,7.42
2022-10-06T04:44:04.011Z,7.43
2022-10-06T04:45:03.999Z,7.42
2022-10-06T04:46:24.061Z,7.47
2022-10-06T04:47:05.086Z,7.43
2022-10-06T04:48:03.957Z,7.43
2022-10-06T04:49:03.948Z,7.42
2022-10-06T04:50:03.935Z,7.40
2022-10-06T04:51:03.920Z,7.38
2022-10-06T04:52:03.907Z,7.40
2022-10-06T04:53:03.900Z,7.42
2022-10-06T04:54:03.880Z,7.43
2022-10-06T04:55:03.899Z,7.42
2022-10-06T04:56:03.863Z,7.42
2022-10-06T04:57:03.844Z,7.42
2022-10-06T04:58:03.826Z,7.42
2022-10-06T04:59:03.816Z,7.38
2022-10-06T05:00:08.820Z,7.33
2022-10-06T05:01:04.848Z,7.33
2022-10-06T05:02:03.879Z,7.33
2022-10-06T05:03:03.762Z,7.32
2022-10-06T05:04:03.748Z,7.31
2022-10-06T05:05:03.737Z,7.29
2022-10-06T05:06:03.726Z,7.24
2022-10-06T05:07:03.721Z,7.23
2022-10-06T05:08:03.700Z,7.23
2022-10-06T05:09:03.685Z,7.25
2022-10-06T05:10:03.676Z,7.28
2022-10-06T05:11:03.680Z,7.25
2022-10-06T05:12:03.647Z,7.25
2022-10-06T05:13:03.633Z,7.24
2022-10-06T05:14:03.621Z,7.21
2022-10-06T05:15:03.607Z,7.17
2022-10-06T05:16:03.626Z,7.15
2022-10-06T05:17:03.777Z,7.17
2022-10-06T05:18:03.570Z,7.18
2022-10-06T05:19:03.556Z,7.20
2022-10-06T05:20:03.542Z,7.20
2022-10-06T05:21:06.604Z,7.20
2022-10-06T05:22:03.524Z,7.20
2022-10-06T05:23:03.500Z,7.20
2022-10-06T05:24:03.488Z,7.25
2022-10-06T05:25:03.500Z,7.28
2022-10-06T05:26:03.470Z,7.25
2022-10-06T05:27:03.475Z,7.25
2022-10-06T05:28:03.485Z,7.28
2022-10-06T05:29:03.422Z,7.25
2022-10-06T05:30:03.420Z,7.23
2022-10-06T05:31:03.395Z,7.24
2022-10-06T05:32:03.529Z,7.32
2022-10-06T05:33:03.379Z,7.35
2022-10-06T05:34:03.379Z,7.38
2022-10-06T05:35:03.345Z,7.39
2022-10-06T05:36:03.331Z,7.40
2022-10-06T05:37:03.338Z,7.42
2022-10-06T05:38:03.306Z,7.40
2022-10-06T05:39:03.302Z,7.43
2022-10-06T05:40:03.282Z,7.40
2022-10-06T05:41:03.273Z,7.40
2022-10-06T05:42:03.251Z,7.42
2022-10-06T05:43:03.261Z,7.43
2022-10-06T05:44:03.225Z,7.45
2022-10-06T05:45:03.212Z,7.47
2022-10-06T05:46:03.307Z,7.53
2022-10-06T05:47:03.186Z,7.56
2022-10-06T05:48:03.170Z,7.58
2022-10-06T05:49:03.174Z,7.58
2022-10-06T05:50:03.146Z,7.60
2022-10-06T05:51:03.133Z,7.61
2022-10-06T05:52:03.125Z,7.70
2022-10-06T05:53:03.116Z,7.75
2022-10-06T05:54:03.105Z,7.76
2022-10-06T05:55:03.079Z,7.80
2022-10-06T05:56:03.068Z,7.83
2022-10-06T05:57:03.059Z,7.87
2022-10-06T05:58:03.043Z,7.87
2022-10-06T05:59:03.060Z,7.85
2022-10-06T06:00:03.021Z,7.80
2022-10-06T06:01:02.999Z,7.79
2022-10-06T06:02:03.093Z,7.80
2022-10-06T06:03:03.049Z,7.83
2022-10-06T06:04:02.997Z,7.87
2022-10-06T06:05:02.952Z,7.88
2022-10-06T06:06:02.933Z,7.90
2022-10-06T06:07:02.922Z,7.90
2022-10-06T06:08:02.907Z,7.93
2022-10-06T06:09:02.894Z,7.94
2022-10-06T06:10:02.881Z,7.97
2022-10-06T06:11:02.864Z,7.97
2022-10-06T06:12:02.885Z,7.97
2022-10-06T06:13:02.850Z,7.95
2022-10-06T06:14:02.831Z,8.00
2022-10-06T06:15:02.848Z,8.05
2022-10-06T06:16:02.804Z,8.00
2022-10-06T06:17:02.911Z,8.03
2022-10-06T06:18:02.788Z,8.08
2022-10-06T06:19:02.766Z,8.10
2022-10-06T06:20:02.752Z,8.13
2022-10-06T06:21:02.734Z,8.16
2022-10-06T06:22:02.724Z,8.19
2022-10-06T06:23:02.742Z,8.20
2022-10-06T06:24:02.706Z,8.26
2022-10-06T06:25:02.678Z,8.30
2022-10-06T06:26:02.937Z,8.33
2022-10-06T06:27:02.659Z,8.34
2022-10-06T06:28:02.689Z,8.26
2022-10-06T06:29:02.696Z,8.26
2022-10-06T06:30:02.618Z,8.30
2022-10-06T06:31:02.704Z,8.37
2022-10-06T06:32:02.590Z,8.49
2022-10-06T06:33:02.584Z,8.69
2022-10-06T06:34:02.568Z,9.06
2022-10-06T06:35:02.555Z,9.55
2022-10-06T06:36:02.538Z,10.05
2022-10-06T06:37:07.488Z,10.54
2022-10-06T06:38:03.747Z,10.96
2022-10-06T06:39:02.503Z,11.33
2022-10-06T06:40:02.474Z,11.77
2022-10-06T06:41:02.480Z,11.90
2022-10-06T06:42:02.458Z,12.03
2022-10-06T06:43:02.446Z,12.15
2022-10-06T06:44:02.449Z,12.25
2022-10-06T06:45:02.412Z,12.60
2022-10-06T06:46:02.447Z,13.12
2022-10-06T06:47:02.413Z,13.56
2022-10-06T06:48:02.380Z,13.97
2022-10-06T06:49:02.357Z,14.29
2022-10-06T06:50:02.361Z,14.53
2022-10-06T06:51:02.338Z,14.41
2022-10-06T06:52:02.322Z,14.12
2022-10-06T06:53:02.312Z,13.50
2022-10-06T06:54:02.309Z,13.01
2022-10-06T06:55:02.288Z,12.64
2022-10-06T06:56:02.272Z,12.62
2022-10-06T06:57:02.264Z,12.67
2022-10-06T06:58:02.309Z,12.72
2022-10-06T06:59:02.433Z,12.50
2022-10-06T07:00:02.223Z,12.36
2022-10-06T07:01:02.493Z,12.13
2022-10-06T07:02:02.271Z,11.87
2022-10-06T07:03:02.259Z,11.73
2022-10-06T07:04:02.169Z,11.72
2022-10-06T07:05:02.156Z,11.72
2022-10-06T07:06:02.140Z,11.77
2022-10-06T07:07:02.117Z,11.78
2022-10-06T07:08:02.165Z,11.75
2022-10-06T07:09:02.131Z,11.83
2022-10-06T07:10:02.104Z,11.78
2022-10-06T07:11:02.076Z,11.77
2022-10-06T07:12:02.064Z,11.60
2022-10-06T07:13:02.051Z,11.54
2022-10-06T07:14:02.031Z,11.60
2022-10-06T07:15:02.021Z,11.59
2022-10-06T07:16:02.035Z,11.54
2022-10-06T07:17:01.996Z,11.48
2022-10-06T07:18:01.983Z,11.44
2022-10-06T07:19:01.995Z,11.37
2022-10-06T07:20:01.964Z,11.36
2022-10-06T07:21:01.940Z,11.32
2022-10-06T07:22:01.932Z,11.27
2022-10-06T07:23:01.925Z,11.22
2022-10-06T07:24:01.902Z,11.08
2022-10-06T07:25:01.891Z,11.02
2022-10-06T07:26:01.879Z,11.02
2022-10-06T07:27:01.869Z,11.07
2022-10-06T07:28:01.892Z,11.08
2022-10-06T07:29:01.837Z,11.11
2022-10-06T07:30:01.833Z,11.14
2022-10-06T07:31:01.904Z,11.15
2022-10-06T07:32:01.816Z,11.15
2022-10-06T07:33:01.786Z,11.17
2022-10-06T07:34:01.777Z,11.22
2022-10-06T07:35:01.794Z,11.23
2022-10-06T07:36:01.739Z,11.22
2022-10-06T07:37:04.196Z,11.25
2022-10-06T07:38:01.723Z,11.27
2022-10-06T07:39:01.711Z,11.30
2022-10-06T07:40:01.699Z,11.35
2022-10-06T07:42:01.673Z,11.43
2022-10-06T07:43:01.655Z,11.41
2022-10-06T07:44:07.161Z,11.44
2022-10-06T07:45:02.659Z,11.47
2022-10-06T07:46:01.896Z,11.50
2022-10-06T07:47:01.706Z,11.50
2022-10-06T07:48:01.785Z,11.54
2022-10-06T07:49:01.574Z,11.60
2022-10-06T07:50:01.763Z,11.68
2022-10-06T07:51:01.768Z,11.73
2022-10-06T07:52:01.546Z,11.78
2022-10-06T07:53:01.535Z,11.81
2022-10-06T07:54:01.510Z,11.86
2022-10-06T07:55:01.494Z,11.90
2022-10-06T07:56:01.678Z,11.95
2022-10-06T07:57:01.469Z,11.95
2022-10-06T07:58:01.653Z,11.99
2022-10-06T07:59:01.452Z,12.02
2022-10-06T08:00:03.350Z,12.04
2022-10-06T08:01:01.422Z,12.09
2022-10-06T08:02:01.814Z,12.12
2022-10-06T08:03:01.646Z,12.13
2022-10-06T08:04:01.577Z,12.17
2022-10-06T08:05:01.567Z,12.20
2022-10-06T08:06:01.546Z,12.20
2022-10-06T08:07:01.356Z,12.21
2022-10-06T08:08:01.524Z,12.28
2022-10-06T08:09:01.515Z,12.35
2022-10-06T08:10:01.494Z,12.40
2022-10-06T08:11:02.009Z,12.45
2022-10-06T08:12:01.470Z,12.49
2022-10-06T08:13:01.455Z,12.55
2022-10-06T08:14:02.682Z,12.58
2022-10-06T08:15:04.538Z,12.64
2022-10-06T08:16:01.834Z,12.68
2022-10-06T08:17:01.408Z,12.72
2022-10-06T08:18:01.593Z,12.75
2022-10-06T08:19:01.374Z,12.76
2022-10-06T08:20:01.358Z,12.80
2022-10-06T08:21:01.152Z,12.80
2022-10-06T08:22:04.809Z,12.80
2022-10-06T08:23:01.361Z,12.83
2022-10-06T08:24:01.110Z,12.90
2022-10-06T08:25:07.669Z,12.91
2022-10-06T08:26:02.723Z,12.97
2022-10-06T08:27:01.272Z,13.01
2022-10-06T08:28:01.324Z,13.01
2022-10-06T08:29:01.240Z,13.05
2022-10-06T08:30:01.033Z,13.08
2022-10-06T08:31:01.052Z,13.13
2022-10-06T08:32:01.319Z,13.18
2022-10-06T08:33:01.197Z,13.22
2022-10-06T08:34:01.174Z,13.27
2022-10-06T08:35:01.171Z,13.33
2022-10-06T08:36:01.148Z,13.39
2022-10-06T08:37:19.285Z,13.42
2022-10-06T08:38:01.959Z,13.49
2022-10-06T08:39:01.222Z,13.56
2022-10-06T08:40:01.100Z,13.63
2022-10-06T08:41:00.888Z,13.71
2022-10-06T08:42:01.078Z,13.77
2022-10-06T08:43:01.057Z,13.85
2022-10-06T08:44:01.072Z,13.92
2022-10-06T08:45:01.032Z,13.99
2022-10-06T08:46:00.829Z,14.10
2022-10-06T08:47:01.097Z,14.15
2022-10-06T08:48:00.795Z,14.23
2022-10-06T08:49:00.978Z,14.29
2022-10-06T08:50:00.965Z,14.35
2022-10-06T08:51:00.762Z,14.40
2022-10-06T08:52:00.743Z,14.44
2022-10-06T08:53:01.325Z,14.45
2022-10-06T08:54:00.713Z,14.47
2022-10-06T08:55:00.752Z,14.48
2022-10-06T08:56:00.885Z,14.51
2022-10-06T08:57:00.876Z,14.62
2022-10-06T08:58:00.910Z,14.72
2022-10-06T08:59:00.654Z,14.82
2022-10-06T09:00:00.833Z,14.89
2022-10-06T09:01:00.917Z,14.99
2022-10-06T09:02:02.083Z,15.11
2022-10-06T09:03:02.006Z,15.18
2022-10-06T09:04:00.784Z,15.21
2022-10-06T09:05:01.201Z,15.24
2022-10-06T09:06:02.811Z,15.25
2022-10-06T09:07:00.744Z,15.28
2022-10-06T09:08:00.730Z,15.28
2022-10-06T09:09:00.721Z,15.22
2022-10-06T09:10:00.706Z,15.19
2022-10-06T09:11:00.520Z,15.19
2022-10-06T09:12:00.679Z,15.18
2022-10-06T09:13:00.715Z,15.14
2022-10-06T09:14:00.860Z,15.11
2022-10-06T09:15:00.649Z,15.15
2022-10-06T09:16:00.673Z,15.17
2022-10-06T09:17:00.629Z,15.17
2022-10-06T09:18:00.609Z,15.19
2022-10-06T09:19:09.027Z,15.21
2022-10-06T09:20:01.416Z,15.24
2022-10-06T09:21:00.364Z,15.27
2022-10-06T09:22:00.350Z,15.27
2022-10-06T09:23:00.356Z,15.28
2022-10-06T09:24:00.333Z,15.33
2022-10-06T09:25:00.312Z,15.39
2022-10-06T09:26:00.297Z,15.42
2022-10-06T09:27:00.315Z,15.49
2022-10-06T09:28:00.332Z,15.49
2022-10-06T09:29:00.262Z,15.55
2022-10-06T09:30:00.248Z,15.62
2022-10-06T09:31:00.259Z,15.73
2022-10-06T09:32:00.223Z,15.83
2022-10-06T09:33:00.212Z,15.95
2022-10-06T09:34:00.399Z,16.09
2022-10-06T09:35:00.785Z,16.24
2022-10-06T09:36:00.366Z,16.46
2022-10-06T09:37:01.681Z,16.46
2022-10-06T09:38:04.403Z,16.43
2022-10-06T09:39:01.366Z,16.47
2022-10-06T09:40:00.127Z,16.46
2022-10-06T09:41:00.106Z,16.51
2022-10-06T09:42:00.570Z,16.53
2022-10-06T09:43:00.497Z,16.53
2022-10-06T09:44:00.267Z,16.54
2022-10-06T09:45:00.064Z,16.56
2022-10-06T09:46:00.294Z,16.54
2022-10-06T09:47:00.226Z,16.56
2022-10-06T09:48:00.018Z,16.54
2022-10-06T09:49:00.002Z,16.51
2022-10-06T09:49:59.990Z,16.51
2022-10-06T09:50:59.977Z,16.50
2022-10-06T09:51:59.967Z,16.50
2022-10-06T09:52:59.947Z,16.49
2022-10-06T09:53:59.944Z,16.49
2022-10-06T09:54:59.923Z,16.51
2022-10-06T09:55:59.910Z,16.53
2022-10-06T09:56:59.900Z,16.56
2022-10-06T09:57:59.887Z,16.54
2022-10-06T09:58:59.898Z,16.58
2022-10-06T10:00:00.182Z,16.60
2022-10-06T10:00:59.856Z,16.60
2022-10-06T10:01:59.839Z,16.61
2022-10-06T10:02:59.945Z,16.68
2022-10-06T10:04:19.539Z,16.71
2022-10-06T10:05:00.830Z,16.78
2022-10-06T10:05:59.978Z,16.83
2022-10-06T10:06:59.770Z,16.90
2022-10-06T10:07:59.754Z,17.02
2022-10-06T10:08:59.734Z,17.09
2022-10-06T10:09:59.848Z,17.16
2022-10-06T10:10:59.730Z,17.12
2022-10-06T10:11:59.759Z,17.12
2022-10-06T10:12:59.694Z,17.11
2022-10-06T10:13:59.684Z,17.05
2022-10-06T10:14:59.707Z,17.04
2022-10-06T10:15:59.690Z,17.02
2022-10-06T10:16:59.639Z,17.04
2022-10-06T10:17:59.631Z,16.99
2022-10-06T10:18:59.617Z,16.94
2022-10-06T10:19:59.900Z,16.96
2022-10-06T10:20:59.592Z,17.08
2022-10-06T10:21:59.651Z,17.12
2022-10-06T10:22:59.567Z,17.16
2022-10-06T10:23:59.549Z,17.22
2022-10-06T10:24:59.535Z,17.23
2022-10-06T10:25:59.563Z,17.26
2022-10-06T10:26:59.504Z,17.30
2022-10-06T10:27:59.587Z,17.31
2022-10-06T10:28:59.485Z,17.31
2022-10-06T10:29:59.757Z,17.36
2022-10-06T10:30:59.515Z,17.39
2022-10-06T10:31:59.481Z,17.44
2022-10-06T10:32:59.433Z,17.46
2022-10-06T10:34:11.915Z,17.46
2022-10-06T10:35:00.698Z,17.48
2022-10-06T10:35:59.393Z,17.52
2022-10-06T10:36:59.384Z,17.54
2022-10-06T10:37:59.363Z,17.56
2022-10-06T10:38:59.354Z,17.51
2022-10-06T10:39:59.359Z,17.57
2022-10-06T10:40:59.327Z,17.59
2022-10-06T10:41:59.315Z,17.59
2022-10-06T10:42:59.305Z,17.59
2022-10-06T10:44:03.355Z,17.59
2022-10-06T10:44:59.617Z,17.59
2022-10-06T10:45:59.259Z,17.63
2022-10-06T10:46:59.323Z,17.57
2022-10-06T10:47:59.231Z,17.52
2022-10-06T10:48:59.221Z,17.49
2022-10-06T10:49:59.211Z,17.48
2022-10-06T10:50:59.200Z,17.46
2022-10-06T10:51:59.190Z,17.48
2022-10-06T10:52:59.173Z,17.49
2022-10-06T10:53:59.160Z,17.51
2022-10-06T10:54:59.570Z,17.51
2022-10-06T10:55:59.131Z,17.54
2022-10-06T10:56:59.123Z,17.56
2022-10-06T10:57:59.109Z,17.63
2022-10-06T10:58:59.095Z,17.64
2022-10-06T10:59:59.081Z,17.64
2022-10-06T11:00:59.106Z,17.64
2022-10-06T11:01:59.117Z,17.63
2022-10-06T11:02:59.063Z,17.65
2022-10-06T11:03:59.028Z,17.70
2022-10-06T11:04:59.357Z,17.70
2022-10-06T11:05:58.999Z,17.68
2022-10-06T11:06:58.989Z,17.67
2022-10-06T11:07:58.973Z,17.67
2022-10-06T11:08:58.954Z,17.67
2022-10-06T11:09:58.951Z,17.67
2022-10-06T11:10:58.932Z,17.71
2022-10-06T11:11:58.922Z,17.72
2022-10-06T11:12:58.908Z,17.71
2022-10-06T11:13:58.897Z,17.74
2022-10-06T11:14:59.768Z,17.76
2022-10-06T11:15:58.890Z,17.76
2022-10-06T11:16:58.851Z,17.76
2022-10-06T11:17:58.843Z,17.80
2022-10-06T11:18:58.861Z,17.78
2022-10-06T11:19:58.817Z,17.80
2022-10-06T11:20:58.801Z,17.79
2022-10-06T11:21:58.783Z,17.80
2022-10-06T11:22:58.769Z,17.85
2022-10-06T11:23:58.766Z,17.85
2022-10-06T11:24:59.131Z,17.87
2022-10-06T11:25:58.724Z,17.90
2022-10-06T11:26:58.739Z,17.92
2022-10-06T11:27:58.781Z,17.97
2022-10-06T11:28:58.695Z,17.94
2022-10-06T11:29:59.007Z,17.97
2022-10-06T11:30:58.669Z,18.03
2022-10-06T11:31:58.720Z,18.03
2022-10-06T11:32:58.650Z,18.00
2022-10-06T11:33:58.632Z,17.95
2022-10-06T11:34:58.649Z,17.90
2022-10-06T11:35:58.607Z,17.92
2022-10-06T11:36:58.594Z,17.90
2022-10-06T11:37:58.619Z,17.87
2022-10-06T11:38:58.569Z,17.86
2022-10-06T11:39:58.888Z,17.80
2022-10-06T11:40:58.539Z,17.78
2022-10-06T11:41:58.529Z,17.67
2022-10-06T11:42:58.523Z,17.67
2022-10-06T11:43:58.499Z,17.63
2022-10-06T11:44:58.894Z,17.60
2022-10-06T11:45:58.534Z,17.63
2022-10-06T11:46:58.457Z,17.57
2022-10-06T11:47:58.451Z,17.56
2022-10-06T11:48:58.428Z,17.56
2022-10-06T11:49:58.426Z,17.56
2022-10-06T11:50:58.435Z,17.51
2022-10-06T11:52:00.854Z,17.49
2022-10-06T11:52:58.390Z,17.51
2022-10-06T11:53:58.363Z,17.49
2022-10-06T11:54:58.696Z,17.49
2022-10-06T11:55:58.340Z,17.45
2022-10-06T11:56:58.339Z,17.42
2022-10-06T11:57:58.323Z,17.38
2022-10-06T11:58:58.537Z,17.33
2022-10-06T11:59:58.288Z,17.31
2022-10-06T12:00:58.275Z,17.33
2022-10-06T12:01:58.713Z,17.29
2022-10-06T12:02:58.413Z,17.24
2022-10-06T12:03:58.436Z,17.23
2022-10-06T12:04:58.487Z,17.20
2022-10-06T12:05:58.217Z,17.19
2022-10-06T12:06:58.245Z,17.16
2022-10-06T12:07:58.190Z,17.15
2022-10-06T12:08:58.180Z,17.16
2022-10-06T12:09:58.162Z,17.19
2022-10-06T12:10:58.146Z,17.19
2022-10-06T12:11:58.333Z,17.19
2022-10-06T12:13:21.182Z,17.19
2022-10-06T12:15:06.514Z,17.22
2022-10-06T12:17:19.069Z,17.24
2022-10-06T12:17:59.091Z,17.22
2022-10-06T12:18:58.040Z,17.20
2022-10-06T12:19:58.038Z,17.22
2022-10-06T12:20:58.018Z,17.27
2022-10-06T12:21:58.006Z,17.31
2022-10-06T12:22:58.003Z,17.38
2022-10-06T12:23:57.991Z,17.41
2022-10-06T12:24:58.302Z,17.46
2022-10-06T12:25:57.950Z,17.49
2022-10-06T12:26:57.941Z,17.54
2022-10-06T12:27:57.974Z,17.64
2022-10-06T12:28:57.916Z,17.68
2022-10-06T12:29:58.238Z,17.70
2022-10-06T12:30:58.156Z,17.70
2022-10-06T12:31:57.878Z,17.74
2022-10-06T12:32:57.867Z,17.76
2022-10-06T12:33:57.849Z,17.80
2022-10-06T12:34:58.244Z,17.86
2022-10-06T12:35:57.824Z,17.92
2022-10-06T12:36:57.815Z,17.97
2022-10-06T12:37:57.799Z,17.98
2022-10-06T12:38:57.805Z,18.01
2022-10-06T12:39:57.770Z,18.05
2022-10-06T12:40:57.761Z,18.10
2022-10-06T12:41:57.748Z,18.13
2022-10-06T12:42:57.731Z,18.11
2022-10-06T12:43:57.918Z,18.18
2022-10-06T12:44:58.039Z,18.20
2022-10-06T12:45:57.759Z,18.18
2022-10-06T12:46:57.680Z,18.20
2022-10-06T12:47:57.708Z,18.23
2022-10-06T12:48:57.654Z,18.26
2022-10-06T12:49:57.643Z,18.31
2022-10-06T12:50:57.861Z,18.34
2022-10-06T12:51:59.739Z,18.33
2022-10-06T12:52:57.600Z,18.28
2022-10-06T12:53:57.588Z,18.31
2022-10-06T12:54:58.013Z,18.29
2022-10-06T12:55:57.561Z,18.29
2022-10-06T12:56:57.548Z,18.33
2022-10-06T12:57:57.537Z,18.33
2022-10-06T12:58:57.523Z,18.37
2022-10-06T12:59:57.509Z,18.44
2022-10-06T13:00:57.543Z,18.44
2022-10-06T13:01:57.484Z,18.47
2022-10-06T13:02:57.476Z,18.47
2022-10-06T13:03:57.461Z,18.47
2022-10-06T13:04:57.793Z,18.50
2022-10-06T13:05:57.433Z,18.52
2022-10-06T13:06:58.028Z,18.55
2022-10-06T13:07:57.406Z,18.56